createdAt,value
2017-07-14T00:00:51.944Z,0
2017-07-14T00:01:51.973Z,0
2017-07-14T00:02:52.034Z,0
2017-07-14T00:03:52.026Z,0
2017-07-14T00:04:52.037Z,0
2017-07-14T00:05:51.946Z,0
2017-07-14T00:06:52.039Z,0
2017-07-14T00:07:52.045Z,0
2017-07-14T00:08:51.947Z,0
2017-07-14T00:09:52.034Z,0
2017-07-14T00:10:51.956Z,0
2017-07-14T00:11:51.946Z,0
2017-07-14T00:12:52.068Z,0
2017-07-14T00:13:52.043Z,0
2017-07-14T00:14:52.032Z,0
2017-07-14T00:15:52.021Z,0
2017-07-14T00:16:52.028Z,0
2017-07-14T00:17:52.047Z,0
2017-07-14T00:18:52.023Z,0
2017-07-14T00:19:52.021Z,0
2017-07-14T00:20:52.026Z,0
2017-07-14T00:21:51.999Z,0
2017-07-14T00:22:52.027Z,0
2017-07-14T00:23:52.025Z,0
2017-07-14T00:24:52.027Z,0
2017-07-14T00:25:52.026Z,0
2017-07-14T00:26:52.031Z,0
2017-07-14T00:27:52.028Z,0
2017-07-14T00:28:52.029Z,0
2017-07-14T00:29:52.027Z,0
2017-07-14T00:30:52.031Z,0
2017-07-14T00:31:52.032Z,0
2017-07-14T00:32:52.031Z,0
2017-07-14T00:33:52.038Z,0
2017-07-14T00:34:52.058Z,0
2017-07-14T00:35:52.058Z,0
2017-07-14T00:36:52.057Z,0
2017-07-14T00:37:51.959Z,0
2017-07-14T00:38:51.963Z,0
2017-07-14T00:39:52.054Z,0
2017-07-14T00:40:52.062Z,0
2017-07-14T00:41:51.966Z,0
2017-07-14T00:42:52.053Z,0
2017-07-14T00:43:52.063Z,0
2017-07-14T00:44:51.985Z,0
2017-07-14T00:45:51.946Z,0
2017-07-14T00:46:51.916Z,0
2017-07-14T00:47:52.038Z,0
2017-07-14T00:48:51.916Z,0
2017-07-14T00:49:51.960Z,0
2017-07-14T00:50:51.945Z,0
2017-07-14T00:51:51.962Z,0
2017-07-14T00:52:51.988Z,0
2017-07-14T00:53:51.945Z,0
2017-07-14T00:54:51.978Z,0
2017-07-14T00:55:52.068Z,0
2017-07-14T00:56:52.067Z,0
2017-07-14T00:57:52.063Z,0
2017-07-14T00:58:52.064Z,0
2017-07-14T00:59:52.125Z,0
2017-07-14T01:00:52.071Z,0
2017-07-14T01:01:51.976Z,0
2017-07-14T01:02:52.033Z,0
2017-07-14T01:03:52.045Z,0
2017-07-14T01:04:52.133Z,0
2017-07-14T01:05:52.037Z,0
2017-07-14T01:06:52.040Z,0
2017-07-14T01:07:52.049Z,0
2017-07-14T01:08:52.038Z,0
2017-07-14T01:09:52.041Z,0
2017-07-14T01:10:52.045Z,0
2017-07-14T01:11:52.040Z,0
2017-07-14T01:12:52.046Z,0
2017-07-14T01:13:52.036Z,0
2017-07-14T01:14:52.066Z,0
2017-07-14T01:15:52.177Z,0
2017-07-14T01:16:52.079Z,0
2017-07-14T01:17:52.078Z,0
2017-07-14T01:18:52.079Z,0
2017-07-14T01:19:52.083Z,0
2017-07-14T01:20:52.082Z,0
2017-07-14T01:21:52.084Z,0
2017-07-14T01:22:52.086Z,0
2017-07-14T01:23:52.083Z,0
2017-07-14T01:24:52.078Z,0
2017-07-14T01:25:52.059Z,0
2017-07-14T01:26:52.084Z,0
2017-07-14T01:27:52.085Z,0
2017-07-14T01:28:52.023Z,0
2017-07-14T01:29:51.994Z,0
2017-07-14T01:30:52.088Z,0
2017-07-14T01:31:52.066Z,0
2017-07-14T01:32:52.089Z,0
2017-07-14T01:33:51.995Z,0
2017-07-14T01:34:51.998Z,0
2017-07-14T01:35:52.089Z,0
2017-07-14T01:36:52.001Z,0
2017-07-14T01:37:52.094Z,0
2017-07-14T01:38:52.009Z,0
2017-07-14T01:39:52.005Z,0
2017-07-14T01:40:52.297Z,0
2017-07-14T01:41:52.092Z,0
2017-07-14T01:42:52.092Z,0
2017-07-14T01:43:52.094Z,0
2017-07-14T01:44:52.060Z,0
2017-07-14T01:45:52.061Z,0
2017-07-14T01:46:52.062Z,0
2017-07-14T01:47:52.057Z,0
2017-07-14T01:48:52.061Z,0
2017-07-14T01:49:52.065Z,0
2017-07-14T01:50:52.067Z,0
2017-07-14T01:51:52.066Z,0
2017-07-14T01:52:52.062Z,0
2017-07-14T01:53:52.066Z,0
2017-07-14T01:54:52.187Z,0
2017-07-14T01:55:51.997Z,0
2017-07-14T01:56:52.080Z,0
2017-07-14T01:57:52.077Z,0
2017-07-14T01:58:52.078Z,0
2017-07-14T01:59:52.078Z,0
2017-07-14T02:00:52.080Z,0
2017-07-14T02:01:52.078Z,0
2017-07-14T02:02:52.082Z,0
2017-07-14T02:03:52.084Z,0
2017-07-14T02:04:52.106Z,0
2017-07-14T02:05:52.104Z,0
2017-07-14T02:06:52.013Z,0
2017-07-14T02:07:52.109Z,0
2017-07-14T02:08:52.019Z,0
2017-07-14T02:09:52.017Z,0
2017-07-14T02:10:52.109Z,0
2017-07-14T02:11:52.121Z,0
2017-07-14T02:12:52.111Z,0
2017-07-14T02:13:52.107Z,0
2017-07-14T02:14:52.093Z,0
2017-07-14T02:15:52.073Z,0
2017-07-14T02:16:52.078Z,0
2017-07-14T02:17:52.082Z,0
2017-07-14T02:18:52.081Z,0
2017-07-14T02:19:52.082Z,0
2017-07-14T02:20:52.079Z,0
2017-07-14T02:21:52.079Z,0
2017-07-14T02:22:52.080Z,0
2017-07-14T02:23:52.080Z,0
2017-07-14T02:24:52.085Z,0
2017-07-14T02:25:52.076Z,0
2017-07-14T02:26:52.125Z,0
2017-07-14T02:27:52.099Z,0
2017-07-14T02:28:52.123Z,0
2017-07-14T02:29:52.031Z,0
2017-07-14T02:30:52.119Z,0
2017-07-14T02:31:52.204Z,0
2017-07-14T02:32:52.026Z,4
2017-07-14T02:33:52.111Z,4
2017-07-14T02:34:52.117Z,4
2017-07-14T02:35:52.189Z,4
2017-07-14T02:36:52.086Z,4
2017-07-14T02:37:52.086Z,0
2017-07-14T02:38:52.089Z,4
2017-07-14T02:39:52.086Z,4
2017-07-14T02:40:52.188Z,4
2017-07-14T02:41:52.090Z,8
2017-07-14T02:42:52.093Z,8
2017-07-14T02:43:52.095Z,8
2017-07-14T02:44:52.017Z,8
2017-07-14T02:45:52.104Z,8
2017-07-14T02:46:52.095Z,12
2017-07-14T02:47:52.094Z,12
2017-07-14T02:48:52.093Z,16
2017-07-14T02:49:52.102Z,20
2017-07-14T02:50:52.101Z,20
2017-07-14T02:51:52.092Z,24
2017-07-14T02:52:52.195Z,28
2017-07-14T02:53:52.100Z,32
2017-07-14T02:54:52.100Z,40
2017-07-14T02:55:52.107Z,44
2017-07-14T02:56:52.112Z,48
2017-07-14T02:57:52.110Z,56
2017-07-14T02:58:52.112Z,60
2017-07-14T02:59:52.110Z,68
2017-07-14T03:00:52.112Z,76
2017-07-14T03:01:52.113Z,88
2017-07-14T03:02:52.116Z,104
2017-07-14T03:03:52.115Z,116
2017-07-14T03:04:52.113Z,128
2017-07-14T03:05:52.118Z,144
2017-07-14T03:06:52.116Z,160
2017-07-14T03:07:52.116Z,180
2017-07-14T03:08:52.126Z,200
2017-07-14T03:09:52.119Z,220
2017-07-14T03:10:52.122Z,244
2017-07-14T03:11:52.123Z,268
2017-07-14T03:12:52.152Z,296
2017-07-14T03:13:52.142Z,324
2017-07-14T03:14:52.124Z,356
2017-07-14T03:15:52.057Z,384
2017-07-14T03:16:52.138Z,416
2017-07-14T03:17:52.151Z,448
2017-07-14T03:18:52.057Z,484
2017-07-14T03:19:52.137Z,524
2017-07-14T03:20:52.173Z,564
2017-07-14T03:21:52.151Z,596
2017-07-14T03:22:52.198Z,636
2017-07-14T03:23:52.149Z,676
2017-07-14T03:24:52.149Z,720
2017-07-14T03:25:52.126Z,764
2017-07-14T03:26:52.133Z,804
2017-07-14T03:27:52.130Z,852
2017-07-14T03:28:52.134Z,900
2017-07-14T03:29:52.131Z,952
2017-07-14T03:30:52.135Z,1004
2017-07-14T03:31:52.133Z,1068
2017-07-14T03:32:52.132Z,1136
2017-07-14T03:33:52.131Z,1196
2017-07-14T03:34:52.134Z,1260
2017-07-14T03:35:52.133Z,1324
2017-07-14T03:36:52.136Z,1388
2017-07-14T03:37:52.132Z,1448
2017-07-14T03:38:52.137Z,1516
2017-07-14T03:39:52.137Z,1600
2017-07-14T03:40:52.140Z,1672
2017-07-14T03:41:52.145Z,1768
2017-07-14T03:42:52.140Z,1852
2017-07-14T03:43:52.139Z,1964
2017-07-14T03:44:52.137Z,2056
2017-07-14T03:45:52.032Z,2196
2017-07-14T03:46:52.067Z,2348
2017-07-14T03:47:52.052Z,2468
2017-07-14T03:48:52.059Z,2612
2017-07-14T03:49:52.044Z,2708
2017-07-14T03:50:52.036Z,2732
2017-07-14T03:51:52.067Z,2788
2017-07-14T03:52:52.057Z,2864
2017-07-14T03:53:52.057Z,2944
2017-07-14T03:54:52.064Z,3008
2017-07-14T03:55:52.154Z,3076
2017-07-14T03:56:52.073Z,3144
2017-07-14T03:57:52.170Z,3264
2017-07-14T03:58:52.163Z,3336
2017-07-14T03:59:52.168Z,3428
2017-07-14T04:00:52.167Z,3560
2017-07-14T04:01:52.155Z,3688
2017-07-14T04:02:52.074Z,3868
2017-07-14T04:03:52.168Z,4104
2017-07-14T04:04:52.167Z,4252
2017-07-14T04:05:52.169Z,4332
2017-07-14T04:06:52.169Z,4376
2017-07-14T04:07:52.172Z,4392
2017-07-14T04:08:52.142Z,4444
2017-07-14T04:09:52.080Z,4460
2017-07-14T04:10:52.174Z,4448
2017-07-14T04:11:52.161Z,4484
2017-07-14T04:12:52.085Z,4544
2017-07-14T04:13:52.175Z,4660
2017-07-14T04:14:52.177Z,4732
2017-07-14T04:15:52.168Z,4708
2017-07-14T04:16:52.172Z,4704
2017-07-14T04:17:52.178Z,4772
2017-07-14T04:18:52.179Z,4812
2017-07-14T04:19:52.161Z,4784
2017-07-14T04:20:52.147Z,4800
2017-07-14T04:21:52.173Z,4848
2017-07-14T04:22:52.179Z,4856
2017-07-14T04:23:52.096Z,4836
2017-07-14T04:24:52.171Z,4920
2017-07-14T04:25:52.176Z,4884
2017-07-14T04:26:52.170Z,4904
2017-07-14T04:27:52.196Z,4964
2017-07-14T04:28:52.182Z,5004
2017-07-14T04:29:52.169Z,5048
2017-07-14T04:30:52.191Z,5072
2017-07-14T04:31:52.097Z,5068
2017-07-14T04:32:52.122Z,5048
2017-07-14T04:33:52.097Z,5060
2017-07-14T04:34:52.090Z,5120
2017-07-14T04:35:52.100Z,5176
2017-07-14T04:36:52.189Z,5220
2017-07-14T04:37:52.189Z,5292
2017-07-14T04:38:52.096Z,5356
2017-07-14T04:39:52.188Z,5448
2017-07-14T04:40:52.100Z,5568
2017-07-14T04:41:52.239Z,5684
2017-07-14T04:42:52.098Z,5848
2017-07-14T04:43:52.160Z,6036
2017-07-14T04:44:52.195Z,6256
2017-07-14T04:45:52.182Z,6460
2017-07-14T04:46:52.184Z,6676
2017-07-14T04:47:52.188Z,7052
2017-07-14T04:48:52.168Z,7336
2017-07-14T04:49:52.109Z,7612
2017-07-14T04:50:52.192Z,7836
2017-07-14T04:51:52.168Z,8224
2017-07-14T04:52:52.199Z,8620
2017-07-14T04:53:52.197Z,8796
2017-07-14T04:54:52.249Z,9228
2017-07-14T04:55:52.103Z,9756
2017-07-14T04:56:52.115Z,10312
2017-07-14T04:57:52.192Z,10736
2017-07-14T04:58:52.142Z,11252
2017-07-14T04:59:52.211Z,11696
2017-07-14T05:00:52.201Z,12172
2017-07-14T05:01:52.208Z,12736
2017-07-14T05:02:52.203Z,13140
2017-07-14T05:03:52.112Z,13332
2017-07-14T05:04:52.118Z,13692
2017-07-14T05:05:52.165Z,13964
2017-07-14T05:06:52.168Z,14068
2017-07-14T05:07:52.169Z,14372
2017-07-14T05:08:52.168Z,14508
2017-07-14T05:09:52.185Z,14676
2017-07-14T05:10:52.169Z,14752
2017-07-14T05:11:52.171Z,14880
2017-07-14T05:12:52.175Z,15100
2017-07-14T05:13:52.172Z,15400
2017-07-14T05:14:52.176Z,15656
2017-07-14T05:15:52.176Z,15708
2017-07-14T05:16:52.171Z,15852
2017-07-14T05:17:52.174Z,16068
2017-07-14T05:18:52.171Z,16508
2017-07-14T05:19:52.179Z,16876
2017-07-14T05:20:52.178Z,16920
2017-07-14T05:21:52.182Z,17164
2017-07-14T05:22:52.175Z,17472
2017-07-14T05:23:52.183Z,17732
2017-07-14T05:24:52.183Z,18100
2017-07-14T05:25:52.182Z,18392
2017-07-14T05:26:52.211Z,18936
2017-07-14T05:27:52.119Z,19640
2017-07-14T05:28:52.204Z,20348
2017-07-14T05:29:52.198Z,20544
2017-07-14T05:30:52.133Z,20700
2017-07-14T05:31:52.213Z,20928
2017-07-14T05:32:52.131Z,21424
2017-07-14T05:33:52.131Z,22752
2017-07-14T05:34:52.315Z,22784
2017-07-14T05:35:52.325Z,22752
2017-07-14T05:36:52.208Z,22400
2017-07-14T05:37:52.215Z,20736
2017-07-14T05:38:52.206Z,19760
2017-07-14T05:39:52.253Z,18892
2017-07-14T05:40:52.230Z,18260
2017-07-14T05:41:52.265Z,18100
2017-07-14T05:42:52.236Z,17892
2017-07-14T05:43:52.302Z,17892
2017-07-14T05:44:52.252Z,17844
2017-07-14T05:45:52.215Z,17816
2017-07-14T05:46:52.208Z,17908
2017-07-14T05:47:52.261Z,18036
2017-07-14T05:48:52.251Z,27040
2017-07-14T05:49:52.201Z,75840
2017-07-14T05:50:52.307Z,104480
2017-07-14T05:51:52.254Z,114336
2017-07-14T05:52:52.309Z,128352
2017-07-14T05:53:52.275Z,142624
2017-07-14T05:54:52.272Z,154080
2017-07-14T05:55:52.275Z,162624
2017-07-14T05:56:52.251Z,182080
2017-07-14T05:57:52.244Z,197536
2017-07-14T05:58:52.287Z,184000
2017-07-14T05:59:52.248Z,142496
2017-07-14T06:00:52.257Z,114400
2017-07-14T06:01:52.315Z,134720
2017-07-14T06:02:52.256Z,165728
2017-07-14T06:03:52.344Z,160160
2017-07-14T06:04:52.342Z,142112
2017-07-14T06:05:52.338Z,115680
2017-07-14T06:06:52.326Z,112448
2017-07-14T06:07:52.251Z,110048
2017-07-14T06:08:52.288Z,89216
2017-07-14T06:09:52.254Z,104320
2017-07-14T06:10:52.319Z,21248
2017-07-14T06:11:52.261Z,0
2017-07-14T06:12:52.327Z,53952
2017-07-14T06:13:52.290Z,76896
2017-07-14T06:14:52.294Z,65376
2017-07-14T06:15:52.342Z,50048
2017-07-14T06:16:52.288Z,46976
2017-07-14T06:17:52.291Z,41952
2017-07-14T06:18:52.277Z,38816
2017-07-14T06:19:52.320Z,34304
2017-07-14T06:20:52.255Z,34528
2017-07-14T06:21:52.320Z,35296
2017-07-14T06:22:52.326Z,37824
2017-07-14T06:23:52.283Z,39456
2017-07-14T06:24:52.308Z,38336
2017-07-14T06:25:52.330Z,38944
2017-07-14T06:26:52.297Z,47776
2017-07-14T06:27:52.353Z,52096
2017-07-14T06:28:52.328Z,57344
2017-07-14T06:29:52.271Z,60192
2017-07-14T06:30:52.363Z,61504
2017-07-14T06:31:52.266Z,62656
2017-07-14T06:32:52.302Z,65120
2017-07-14T06:33:52.330Z,64320
2017-07-14T06:34:52.304Z,56672
2017-07-14T06:35:52.274Z,64704
2017-07-14T06:36:52.289Z,64992
2017-07-14T06:37:52.333Z,64832
2017-07-14T06:38:52.270Z,66624
2017-07-14T06:39:52.342Z,65536
2017-07-14T06:40:52.335Z,63040
2017-07-14T06:41:52.272Z,68352
2017-07-14T06:42:52.303Z,64928
2017-07-14T06:43:52.342Z,70624
2017-07-14T06:44:52.281Z,58400
2017-07-14T06:45:52.297Z,70848
2017-07-14T06:46:52.300Z,79232
2017-07-14T06:47:52.312Z,83872
2017-07-14T06:48:52.308Z,59712
2017-07-14T06:49:52.364Z,47072
2017-07-14T06:50:52.340Z,45664
2017-07-14T06:51:52.370Z,42784
2017-07-14T06:52:52.338Z,35456
2017-07-14T06:53:52.334Z,35200
2017-07-14T06:54:52.336Z,40960
2017-07-14T06:55:52.304Z,43680
2017-07-14T06:56:52.290Z,39040
2017-07-14T06:57:52.316Z,51872
2017-07-14T06:58:52.271Z,56192
2017-07-14T07:00:52.238Z,67648
2017-07-14T07:01:52.287Z,70176
2017-07-14T07:02:52.316Z,75712
2017-07-14T07:03:52.279Z,73920
2017-07-14T07:04:52.253Z,71968
2017-07-14T07:05:52.302Z,72736
2017-07-14T07:06:52.345Z,75168
2017-07-14T07:07:52.308Z,76224
2017-07-14T07:08:52.316Z,76992
2017-07-14T07:09:52.319Z,77696
2017-07-14T07:10:52.379Z,78272
2017-07-14T07:11:52.313Z,78944
2017-07-14T07:12:52.323Z,77440
2017-07-14T07:13:52.288Z,77152
2017-07-14T07:14:52.348Z,78272
2017-07-14T07:15:52.316Z,79168
2017-07-14T07:16:52.317Z,77984
2017-07-14T07:17:52.291Z,77376
2017-07-14T07:18:52.364Z,80800
2017-07-14T07:19:52.299Z,81664
2017-07-14T07:20:52.302Z,83072
2017-07-14T07:21:52.329Z,83936
2017-07-14T07:22:52.382Z,85600
2017-07-14T07:23:52.478Z,85376
2017-07-14T07:24:52.340Z,85888
2017-07-14T07:25:52.316Z,83488
2017-07-14T07:26:52.357Z,84736
2017-07-14T07:27:52.324Z,83776
2017-07-14T07:28:52.389Z,81728
2017-07-14T07:29:52.329Z,79104
2017-07-14T07:30:52.355Z,79008
2017-07-14T07:31:52.391Z,80480
2017-07-14T07:32:52.356Z,81344
2017-07-14T07:33:52.309Z,83680
2017-07-14T07:34:52.398Z,85920
2017-07-14T07:35:52.359Z,88672
2017-07-14T07:36:52.305Z,90432
2017-07-14T07:37:52.398Z,89600
2017-07-14T07:38:52.311Z,86944
2017-07-14T07:39:52.304Z,84096
2017-07-14T07:40:52.308Z,81792
2017-07-14T07:41:52.400Z,80832
2017-07-14T07:42:52.379Z,82304
2017-07-14T07:43:52.341Z,85600
2017-07-14T07:44:52.407Z,89696
2017-07-14T07:45:52.338Z,93920
2017-07-14T07:46:52.377Z,97824
2017-07-14T07:47:52.400Z,100000
2017-07-14T07:48:52.338Z,100576
2017-07-14T07:49:52.402Z,97760
2017-07-14T07:50:52.350Z,93248
2017-07-14T07:51:52.334Z,88224
2017-07-14T07:52:52.384Z,85056
2017-07-14T07:53:52.346Z,83168
2017-07-14T07:54:52.345Z,85088
2017-07-14T07:55:52.308Z,88960
2017-07-14T07:56:52.335Z,93280
2017-07-14T07:57:52.389Z,92064
2017-07-14T07:58:52.372Z,89824
2017-07-14T07:59:52.334Z,90176
2017-07-14T08:00:52.339Z,94560
2017-07-14T08:01:52.306Z,97856
2017-07-14T08:02:52.313Z,97120
2017-07-14T08:03:52.376Z,94976
2017-07-14T08:04:52.378Z,96800
2017-07-14T08:05:52.378Z,95776
2017-07-14T08:06:52.346Z,96064
2017-07-14T08:07:52.315Z,95776
2017-07-14T08:08:52.358Z,95904
2017-07-14T08:09:52.350Z,98944
2017-07-14T08:10:52.360Z,97664
2017-07-14T08:11:52.351Z,99392
2017-07-14T08:12:52.323Z,102560
2017-07-14T08:13:52.410Z,101024
2017-07-14T08:14:52.418Z,101408
2017-07-14T08:15:52.358Z,107328
2017-07-14T08:16:52.368Z,51968
2017-07-14T08:17:52.388Z,54464
2017-07-14T08:18:52.328Z,58240
2017-07-14T08:19:52.335Z,92480
2017-07-14T08:20:52.331Z,102016
2017-07-14T08:21:52.521Z,102944
2017-07-14T08:22:52.337Z,102880
2017-07-14T08:23:52.397Z,96352
2017-07-14T08:24:52.393Z,65024
2017-07-14T08:25:52.394Z,99072
2017-07-14T08:26:52.332Z,104320
2017-07-14T08:27:52.359Z,110336
2017-07-14T08:28:52.362Z,113376
2017-07-14T08:29:52.368Z,117312
2017-07-14T08:30:52.396Z,122144
2017-07-14T08:31:52.424Z,120352
2017-07-14T08:32:52.351Z,116064
2017-07-14T08:33:52.370Z,101600
2017-07-14T08:34:52.430Z,108416
2017-07-14T08:35:52.424Z,104448
2017-07-14T08:36:52.375Z,68032
2017-07-14T08:37:52.434Z,86176
2017-07-14T08:38:52.395Z,106496
2017-07-14T08:39:52.341Z,111680
2017-07-14T08:40:52.374Z,116736
2017-07-14T08:41:52.438Z,122464
2017-07-14T08:42:52.408Z,89120
2017-07-14T08:43:52.344Z,96128
2017-07-14T08:44:52.440Z,93600
2017-07-14T08:45:52.437Z,90688
2017-07-14T08:46:52.442Z,130816
2017-07-14T08:47:52.347Z,109056
2017-07-14T08:48:52.370Z,102272
2017-07-14T08:49:52.348Z,99488
2017-07-14T08:50:52.379Z,119808
2017-07-14T08:51:52.380Z,112832
2017-07-14T08:52:52.421Z,101920
2017-07-14T08:53:52.410Z,125984
2017-07-14T08:54:52.370Z,114688
2017-07-14T08:55:52.350Z,123680
2017-07-14T08:56:52.350Z,84128
2017-07-14T08:57:52.444Z,124288
2017-07-14T08:58:52.362Z,67872
2017-07-14T08:59:52.412Z,100064
2017-07-14T09:00:52.424Z,75616
2017-07-14T09:01:52.361Z,111264
2017-07-14T09:02:52.368Z,84928
2017-07-14T09:03:52.408Z,138048
2017-07-14T09:04:52.389Z,142560
2017-07-14T09:05:52.413Z,130560
2017-07-14T09:06:52.427Z,131136
2017-07-14T09:07:52.389Z,131712
2017-07-14T09:08:52.427Z,125856
2017-07-14T09:09:52.447Z,102272
2017-07-14T09:10:52.413Z,144096
2017-07-14T09:11:52.411Z,146016
2017-07-14T09:12:52.391Z,149568
2017-07-14T09:13:52.362Z,151776
2017-07-14T09:14:52.458Z,66688
2017-07-14T09:15:52.398Z,60672
2017-07-14T09:16:52.332Z,130368
2017-07-14T09:17:52.388Z,60544
2017-07-14T09:18:52.424Z,82208
2017-07-14T09:19:52.427Z,60800
2017-07-14T09:20:52.376Z,59424
2017-07-14T09:21:52.334Z,142592
2017-07-14T09:22:52.339Z,151520
2017-07-14T09:23:52.360Z,151040
2017-07-14T09:24:52.430Z,149856
2017-07-14T09:25:52.392Z,116768
2017-07-14T09:26:52.368Z,139744
2017-07-14T09:27:52.464Z,86048
2017-07-14T09:28:52.462Z,81280
2017-07-14T09:29:52.422Z,36064
2017-07-14T09:30:52.367Z,31008
2017-07-14T09:31:52.391Z,30816
2017-07-14T09:32:52.367Z,34496
2017-07-14T09:33:52.433Z,32096
2017-07-14T09:34:52.397Z,32352
2017-07-14T09:35:52.428Z,33312
2017-07-14T09:36:52.360Z,35200
2017-07-14T09:37:52.364Z,37760
2017-07-14T09:38:52.365Z,140512
2017-07-14T09:39:52.426Z,51488
2017-07-14T09:40:52.398Z,49184
2017-07-14T09:41:52.370Z,68992
2017-07-14T09:42:52.370Z,49792
2017-07-14T09:43:52.398Z,49536
2017-07-14T09:44:52.392Z,57824
2017-07-14T09:45:52.395Z,56128
2017-07-14T09:46:52.398Z,48416
2017-07-14T09:47:52.439Z,46496
2017-07-14T09:48:52.478Z,46720
2017-07-14T09:49:52.409Z,47872
2017-07-14T09:50:52.382Z,45888
2017-07-14T09:51:52.418Z,42400
2017-07-14T09:52:52.471Z,43040
2017-07-14T09:53:52.441Z,43040
2017-07-14T09:54:52.472Z,50720
2017-07-14T09:55:52.477Z,49344
2017-07-14T09:56:52.406Z,56608
2017-07-14T09:57:52.441Z,48032
2017-07-14T09:58:52.441Z,45696
2017-07-14T09:59:52.385Z,43008
2017-07-14T10:00:52.471Z,44864
2017-07-14T10:01:52.405Z,48544
2017-07-14T10:02:52.387Z,53408
2017-07-14T10:03:52.391Z,106912
2017-07-14T10:04:52.392Z,110976
2017-07-14T10:05:52.454Z,114304
2017-07-14T10:06:52.391Z,69184
2017-07-14T10:07:52.421Z,55936
2017-07-14T10:08:52.388Z,59488
2017-07-14T10:09:52.416Z,65312
2017-07-14T10:10:52.475Z,129984
2017-07-14T10:11:52.389Z,144512
2017-07-14T10:12:52.388Z,141792
2017-07-14T10:13:52.417Z,148576
2017-07-14T10:14:52.415Z,132224
2017-07-14T10:15:52.396Z,64096
2017-07-14T10:16:52.464Z,150368
2017-07-14T10:17:52.411Z,153440
2017-07-14T10:18:52.391Z,152832
2017-07-14T10:19:52.402Z,149728
2017-07-14T10:20:52.409Z,151744
2017-07-14T10:21:52.406Z,143232
2017-07-14T10:22:52.396Z,138144
2017-07-14T10:23:52.364Z,114176
2017-07-14T10:24:52.362Z,113920
2017-07-14T10:25:52.409Z,69088
2017-07-14T10:26:52.390Z,102048
2017-07-14T10:27:52.428Z,80320
2017-07-14T10:28:52.408Z,42080
2017-07-14T10:29:52.426Z,41152
2017-07-14T10:30:52.497Z,42080
2017-07-14T10:31:52.404Z,43552
2017-07-14T10:32:52.431Z,47392
2017-07-14T10:33:52.426Z,146720
2017-07-14T10:34:52.436Z,140064
2017-07-14T10:35:52.478Z,144064
2017-07-14T10:36:52.479Z,55968
2017-07-14T10:37:52.394Z,64160
2017-07-14T10:38:52.428Z,72832
2017-07-14T10:39:52.396Z,54848
2017-07-14T10:40:52.429Z,51488
2017-07-14T10:41:52.426Z,51008
2017-07-14T10:42:52.463Z,162112
2017-07-14T10:43:52.400Z,168000
2017-07-14T10:44:52.431Z,58592
2017-07-14T10:45:52.426Z,167520
2017-07-14T10:46:52.430Z,157184
2017-07-14T10:47:52.429Z,98048
2017-07-14T10:48:52.436Z,52320
2017-07-14T10:49:52.470Z,57344
2017-07-14T10:50:52.423Z,125216
2017-07-14T10:51:52.433Z,68416
2017-07-14T10:52:52.364Z,97248
2017-07-14T10:53:52.435Z,73984
2017-07-14T10:54:52.495Z,102880
2017-07-14T10:55:52.557Z,101632
2017-07-14T10:56:52.366Z,86048
2017-07-14T10:57:52.423Z,134880
2017-07-14T10:58:52.477Z,155104
2017-07-14T10:59:52.425Z,86848
2017-07-14T11:00:52.413Z,49376
2017-07-14T11:01:52.368Z,44192
2017-07-14T11:02:52.440Z,40608
2017-07-14T11:03:52.456Z,38624
2017-07-14T11:04:52.445Z,37408
2017-07-14T11:05:52.427Z,36992
2017-07-14T11:06:52.393Z,37088
2017-07-14T11:07:52.450Z,38560
2017-07-14T11:08:52.460Z,41664
2017-07-14T11:09:52.484Z,165152
2017-07-14T11:10:52.486Z,155360
2017-07-14T11:11:52.517Z,169248
2017-07-14T11:12:52.424Z,168800
2017-07-14T11:13:52.459Z,168544
2017-07-14T11:14:52.425Z,172544
2017-07-14T11:15:52.517Z,169664
2017-07-14T11:16:52.431Z,170784
2017-07-14T11:17:52.430Z,168800
2017-07-14T11:18:52.426Z,153408
2017-07-14T11:19:52.409Z,140352
2017-07-14T11:20:52.404Z,142880
2017-07-14T11:21:52.454Z,42528
2017-07-14T11:22:52.441Z,39808
2017-07-14T11:23:52.405Z,38752
2017-07-14T11:24:52.451Z,40768
2017-07-14T11:25:52.454Z,50528
2017-07-14T11:26:52.453Z,91904
2017-07-14T11:27:52.445Z,111552
2017-07-14T11:28:52.433Z,50240
2017-07-14T11:29:52.416Z,44864
2017-07-14T11:30:52.477Z,41920
2017-07-14T11:31:52.417Z,39488
2017-07-14T11:32:52.451Z,38048
2017-07-14T11:33:52.451Z,37600
2017-07-14T11:34:52.398Z,39872
2017-07-14T11:35:52.418Z,45760
2017-07-14T11:36:52.458Z,54688
2017-07-14T11:37:52.475Z,50560
2017-07-14T11:38:52.440Z,51648
2017-07-14T11:39:52.473Z,59104
2017-07-14T11:40:52.474Z,128160
2017-07-14T11:41:52.533Z,59136
2017-07-14T11:42:52.540Z,53760
2017-07-14T11:43:52.518Z,113920
2017-07-14T11:44:52.479Z,119872
2017-07-14T11:45:52.540Z,112416
2017-07-14T11:46:52.473Z,140480
2017-07-14T11:47:52.496Z,53312
2017-07-14T11:48:52.457Z,134720
2017-07-14T11:49:52.438Z,141440
2017-07-14T11:50:52.497Z,149952
2017-07-14T11:51:52.498Z,157888
2017-07-14T11:52:52.444Z,166112
2017-07-14T11:53:52.443Z,165856
2017-07-14T11:54:52.470Z,165888
2017-07-14T11:55:52.476Z,158016
2017-07-14T11:56:52.499Z,158048
2017-07-14T11:57:52.581Z,154336
2017-07-14T11:58:52.454Z,157312
2017-07-14T11:59:52.464Z,158816
2017-07-14T12:00:52.460Z,162816
2017-07-14T12:01:52.504Z,166240
2017-07-14T12:02:52.498Z,161056
2017-07-14T12:03:52.453Z,153632
2017-07-14T12:04:52.455Z,148608
2017-07-14T12:05:52.473Z,149824
2017-07-14T12:06:52.470Z,149120
2017-07-14T12:07:52.527Z,152064
2017-07-14T12:08:52.514Z,155296
2017-07-14T12:09:52.446Z,160064
2017-07-14T12:10:52.452Z,160448
2017-07-14T12:11:52.478Z,160512
2017-07-14T12:12:52.513Z,157696
2017-07-14T12:13:52.455Z,157056
2017-07-14T12:14:52.511Z,154464
2017-07-14T12:15:52.456Z,151040
2017-07-14T12:16:52.486Z,102848
2017-07-14T12:17:52.496Z,144448
2017-07-14T12:18:52.480Z,132992
2017-07-14T12:19:52.533Z,118112
2017-07-14T12:20:52.536Z,126336
2017-07-14T12:21:52.527Z,115072
2017-07-14T12:22:52.462Z,132480
2017-07-14T12:23:52.482Z,137216
2017-07-14T12:24:52.535Z,112512
2017-07-14T12:25:52.522Z,147360
2017-07-14T12:26:52.504Z,140448
2017-07-14T12:27:52.466Z,158752
2017-07-14T12:28:52.492Z,156960
2017-07-14T12:29:52.483Z,137696
2017-07-14T12:30:52.435Z,136000
2017-07-14T12:31:52.470Z,157184
2017-07-14T12:32:52.488Z,160576
2017-07-14T12:33:52.519Z,156032
2017-07-14T12:34:52.450Z,155328
2017-07-14T12:35:52.492Z,154240
2017-07-14T12:36:52.477Z,153792
2017-07-14T12:37:52.527Z,153984
2017-07-14T12:38:52.522Z,159424
2017-07-14T12:39:52.471Z,162208
2017-07-14T12:40:52.462Z,159424
2017-07-14T12:41:52.528Z,158720
2017-07-14T12:42:52.532Z,156960
2017-07-14T12:43:52.470Z,155008
2017-07-14T12:44:52.506Z,155296
2017-07-14T12:45:52.513Z,155968
2017-07-14T12:46:52.470Z,154624
2017-07-14T12:47:52.573Z,153824
2017-07-14T12:48:52.496Z,152320
2017-07-14T12:49:52.481Z,155712
2017-07-14T12:50:52.488Z,158336
2017-07-14T12:51:52.515Z,158272
2017-07-14T12:52:52.490Z,152000
2017-07-14T12:53:52.540Z,155328
2017-07-14T12:54:52.483Z,149632
2017-07-14T12:55:52.577Z,140896
2017-07-14T12:56:52.509Z,88192
2017-07-14T12:57:52.458Z,159744
2017-07-14T12:58:52.439Z,164128
2017-07-14T12:59:52.480Z,154496
2017-07-14T13:00:52.501Z,64736
2017-07-14T13:01:52.510Z,68576
2017-07-14T13:02:52.487Z,131552
2017-07-14T13:03:52.552Z,96288
2017-07-14T13:04:52.486Z,167392
2017-07-14T13:05:52.507Z,144928
2017-07-14T13:06:52.556Z,51584
2017-07-14T13:07:52.521Z,45824
2017-07-14T13:08:52.500Z,43520
2017-07-14T13:09:52.487Z,42432
2017-07-14T13:10:52.510Z,42304
2017-07-14T13:11:52.514Z,44704
2017-07-14T13:12:52.488Z,43232
2017-07-14T13:13:52.521Z,43744
2017-07-14T13:14:52.513Z,44064
2017-07-14T13:15:52.495Z,45568